Latest Weather Observations for Carnarvon

IDW60801

Issued at 6:32 pm WST Saturday 28 March 2015 (issued every 30 minutes, with the page automatically refreshed every 10 minutes)

About weather observations | Map of weather stations | Latest weather observations for WA | Other Formats
Station Details ID: 006011 Name: CARNARVON AIRPORT Lat: -24.89 Lon: 113.67 Height: 4.0 m
Data from the previous 72 hours. | See also: Recent months at Carnarvon
Date/Time
WST
Temp
°C
App
Temp
°C
Dew
Point
Rel
Hum
%
Delta-T
°C
Wind Press
QNH
hPa
Press
MSL
hPa
Rain
since 9 am
mm
Dir
 
Spd
km/h
Gust
km/h
Spd
kts
Gust
kts
28/06:30pm 26.7 26.8 20.4 68 4.1 S 20 26 11 14 1014.1 - 0.0
28/06:00pm 27.5 26.1 18.8 59 5.6 S 24 32 13 17 1013.7 1013.7 0.0
28/05:30pm 27.9 25.9 19.2 59 5.6 S 28 33 15 18 1013.4 - 0.0
28/05:00pm 28.1 25.2 18.0 54 6.4 S 30 35 16 19 1013.3 - 0.0
28/04:30pm 28.4 25.8 17.8 52 6.7 S 28 37 15 20 1013.6 - 0.0
28/04:00pm 28.2 26.0 18.7 56 6.1 S 28 35 15 19 1013.9 - 0.0
28/03:30pm 28.5 26.8 19.9 59 5.6 S 28 35 15 19 1014.0 - 0.0
28/03:00pm 28.0 26.6 20.4 63 5.0 S 28 35 15 19 1013.9 1013.9 0.0
28/02:30pm 27.5 25.9 20.7 66 4.5 SSW 30 35 16 19 1014.1 - 0.0
28/02:00pm 27.6 26.2 21.1 67 4.3 SSW 30 37 16 20 1014.4 - 0.0
28/01:30pm 27.0 25.6 21.1 70 3.9 SSW 30 37 16 20 1015.1 - 0.0
28/01:00pm 27.8 27.2 21.2 67 4.4 SSW 26 33 14 18 1015.4 - 0.0
28/12:30pm 28.2 27.5 21.1 65 4.7 S 26 35 14 19 1015.9 - 0.0
28/12:00pm 28.1 27.3 20.8 64 4.8 S 26 35 14 19 1016.1 1016.1 0.0
28/11:30am 28.7 28.2 19.1 56 6.2 SSE 20 22 11 12 1017.0 - 0.0
28/11:00am 28.6 27.6 18.8 55 6.3 SSE 22 30 12 16 1017.0 - 0.0
28/10:30am 27.3 26.7 18.9 60 5.4 SE 20 22 11 12 1017.3 - 0.0
28/10:00am 26.8 26.4 19.0 62 5.0 SE 19 24 10 13 1017.7 - 0.0
28/09:30am 26.4 25.7 19.6 66 4.4 SSE 22 26 12 14 1017.5 - 0.0
28/09:00am 25.5 24.4 19.4 69 3.9 SE 24 30 13 16 1017.6 1017.6 0.2
28/08:30am 24.8 23.6 19.3 71 3.5 SSE 24 32 13 17 1017.4 - 0.2
28/08:00am 23.9 23.4 19.2 75 3.0 SSE 20 28 11 15 1017.2 - 0.2
28/07:30am 22.9 23.3 19.8 83 2.0 SSE 17 22 9 12 1016.9 - 0.2
28/07:00am 22.2 23.9 21.0 93 0.8 SSE 13 17 7 9 1016.6 - 0.2
28/06:30am 22.0 23.7 20.9 93 0.7 SSE 13 17 7 9 1016.4 - 0.2
28/06:00am 22.0 23.7 20.9 93 0.7 SSE 13 17 7 9 1016.3 1016.3 0.2
28/05:30am 22.0 23.8 21.1 95 0.6 SSE 13 17 7 9 1016.1 - 0.2
28/05:00am 22.1 24.3 21.2 95 0.6 SSE 11 13 6 7 1015.9 - 0.2
28/04:30am 22.3 24.1 21.2 93 0.7 SSE 13 15 7 8 1015.9 - 0.2
28/04:00am 22.3 24.1 21.1 93 0.8 SSE 13 17 7 9 1016.0 - 0.2
28/03:30am 22.3 24.3 20.8 91 1.0 SSE 11 13 6 7 1016.0 - 0.2
28/03:00am 22.5 24.1 20.8 90 1.1 S 13 17 7 9 1015.9 1015.9 0.2
28/02:30am 22.7 24.3 20.7 88 1.3 S 13 15 7 8 1016.2 - 0.2
28/02:00am 23.1 24.5 21.0 88 1.4 S 15 20 8 11 1016.1 - 0.2
28/01:30am 23.3 24.4 21.3 88 1.3 SSE 17 20 9 11 1016.2 - 0.2
28/01:00am 23.6 24.7 21.9 90 1.1 S 19 24 10 13 1016.4 - 0.2
28/12:30am 23.5 25.0 22.0 91 1.0 S 17 20 9 11 1016.7 - 0.2
28/12:00am 22.4 25.6 21.3 93 0.7 E 6 7 3 4 1016.7 1016.7 0.2
 
Date/Time
WST
Temp
°C
App
Temp
°C
Dew
Point
Rel
Hum
%
Delta-T
°C
Wind Press
QNH
hPa
Press
MSL
hPa
Rain
since 9 am
mm
Dir
 
Spd
km/h
Gust
km/h
Spd
kts
Gust
kts
27/11:30pm 24.0 25.8 21.9 88 1.4 S 15 19 8 10 1016.7 - 0.2
27/11:00pm 23.4 26.0 22.0 92 0.9 S 11 13 6 7 1016.9 - 0.2
27/10:30pm 22.8 25.5 21.3 91 1.0 SSW 9 11 5 6 1017.1 - 0.2
27/10:00pm 22.9 25.8 21.1 89 1.2 SW 7 9 4 5 1017.4 - 0.2
27/09:30pm 23.4 26.6 21.3 88 1.4 W 6 7 3 4 1017.8 - 0.2
27/09:00pm 23.4 26.7 21.4 88 1.3 W 6 7 3 4 1017.6 1017.6 0.2
27/08:30pm 23.8 26.4 21.2 85 1.7 W 9 11 5 6 1017.3 - 0.2
27/08:00pm 23.9 26.4 21.0 84 1.9 W 9 11 5 6 1017.1 - 0.2
27/07:30pm 24.0 26.3 20.6 81 2.2 W 9 11 5 6 1016.9 - 0.2
27/07:00pm 24.0 26.2 20.5 81 2.3 W 9 11 5 6 1016.4 - 0.2
27/06:30pm 24.1 25.7 20.7 81 2.2 WNW 13 15 7 8 1016.1 - 0.2
27/06:00pm 24.6 25.9 20.8 79 2.5 NW 15 19 8 10 1015.9 1015.9 0.2
27/05:30pm 25.3 26.8 19.7 71 3.6 W 11 15 6 8 1015.5 - 0.2
27/05:00pm 25.8 26.6 19.9 70 3.8 NW 15 19 8 10 1015.6 - 0.2
27/04:30pm 26.1 27.3 19.9 68 4.0 NW 13 17 7 9 1015.8 - 0.2
27/04:00pm 26.8 28.5 19.4 64 4.8 WSW 9 17 5 9 1015.8 - 0.2
27/03:30pm 26.3 28.3 19.1 64 4.6 SW 7 11 4 6 1015.8 - 0.2
27/03:00pm 25.6 28.4 19.7 70 3.8 WNW 4 7 2 4 1015.6 1015.6 0.2
27/02:30pm 23.9 25.1 20.7 82 2.1 N 15 19 8 10 1016.2 - 0.2
27/02:00pm 23.9 26.1 20.4 81 2.3 N 9 13 5 7 1016.2 - 0.2
27/01:35pm 22.9 24.1 20.7 87 1.4 N 15 24 8 13 1016.8 - 0.2
27/01:30pm 22.9 23.7 20.6 87 1.5 N 17 24 9 13 1017.0 - 0.2
27/01:21pm 22.9 23.2 20.3 85 1.7 N 19 26 10 14 1017.0 - 0.2
27/01:00pm 23.2 25.5 20.7 86 1.6 N 9 13 5 7 1017.1 - 0.2
27/12:30pm 22.8 24.1 20.8 88 1.3 NNW 15 19 8 10 1017.6 - 0.2
27/12:00pm 22.7 25.2 21.0 90 1.1 NE 9 20 5 11 1017.8 1017.8 0.2
27/11:30am 21.7 24.0 20.6 93 0.7 SE 9 15 5 8 1016.5 - 0.0
27/11:00am 21.5 22.9 20.4 93 0.7 E 13 17 7 9 1017.7 - 0.0
27/10:30am 21.7 23.6 20.6 93 0.7 ENE 11 17 6 9 1017.7 - 0.0
27/10:00am 21.9 23.3 20.3 91 1.0 ENE 13 17 7 9 1017.8 - 0.0
27/09:30am 22.2 23.8 20.8 92 0.9 ENE 13 17 7 9 1018.2 - 0.0
27/09:00am 22.1 23.5 20.4 90 1.1 NNE 13 17 7 9 1018.4 1018.4 24.0
27/08:30am 21.5 23.6 20.1 92 0.9 E 9 13 5 7 1018.2 - 24.0
27/08:03am 20.5 20.1 19.4 93 0.7 ENE 20 26 11 14 1017.9 - 24.0
27/08:00am 20.6 20.3 19.5 93 0.7 ENE 20 24 11 13 1017.8 - 24.0
27/07:40am 20.8 23.0 19.5 92 0.8 NNW 7 13 4 7 1018.6 - 21.0
27/07:30am 20.5 21.5 19.4 93 0.7 E 13 20 7 11 1017.7 - 18.8
27/07:17am 20.5 21.5 19.4 93 0.7 NE 13 17 7 9 1017.6 - 18.8
27/07:06am 20.5 21.2 19.6 95 0.6 ENE 15 19 8 10 1017.7 - 18.8
27/07:00am 20.6 21.3 19.7 95 0.6 E 15 19 8 10 1017.5 - 18.6
27/06:30am 20.8 22.0 19.9 95 0.6 SE 13 17 7 9 1017.5 - 18.2
27/06:00am 20.5 22.0 19.7 95 0.5 ENE 11 13 6 7 1017.0 1017.0 18.0
27/05:33am 21.0 21.2 20.2 95 0.5 NNE 19 22 10 12 1016.7 - 18.0
27/05:30am 21.0 21.2 20.2 95 0.5 NNE 19 22 10 12 1016.7 - 17.8
27/05:00am 21.4 20.2 19.2 87 1.4 NW 24 39 13 21 1017.3 - 12.4
27/04:59am 21.7 20.0 19.0 84 1.7 NW 26 39 14 21 1017.6 - 11.2
27/04:47am 22.4 24.6 20.5 89 1.2 ESE 9 20 5 11 1017.4 - 2.4
27/04:30am 22.4 23.1 20.4 88 1.3 SE 17 24 9 13 1016.6 - 0.4
27/04:00am 23.6 24.3 20.4 82 2.1 SE 17 22 9 12 1016.8 - 0.0
27/03:30am 23.9 24.5 21.3 85 1.7 S 20 30 11 16 1016.6 - 0.0
27/03:00am 23.7 24.6 20.0 80 2.4 SW 15 20 8 11 1017.3 1017.3 0.0
27/02:30am 22.9 25.4 20.3 85 1.7 SSE 7 9 4 5 1016.6 - 0.0
27/02:00am 22.5 25.2 20.3 87 1.4 ENE 6 7 3 4 1016.5 - 0.0
27/01:30am 22.8 25.5 20.3 86 1.6 ENE 6 9 3 5 1016.6 - 0.0
27/01:00am 22.7 24.4 20.1 85 1.7 ENE 11 13 6 7 1016.6 - 0.0
27/12:30am 22.8 24.9 20.2 85 1.7 NE 9 11 5 6 1017.0 - 0.0
27/12:00am 22.9 25.3 20.1 84 1.8 NE 7 9 4 5 1017.0 1017.0 0.0
 
Date/Time
WST
Temp
°C
App
Temp
°C
Dew
Point
Rel
Hum
%
Delta-T
°C
Wind Press
QNH
hPa
Press
MSL
hPa
Rain
since 9 am
mm
Dir
 
Spd
km/h
Gust
km/h
Spd
kts
Gust
kts
26/11:30pm 23.0 25.5 20.2 84 1.8 ENE 7 9 4 5 1017.2 - 0.0
26/11:00pm 23.3 25.6 19.9 81 2.2 ENE 7 9 4 5 1017.5 - 0.0
26/10:30pm 23.6 27.2 19.7 79 2.5 CALM 0 0 0 0 1017.7 - 0.0
26/10:00pm 23.7 26.6 19.8 79 2.5 ENE 4 6 2 3 1018.0 - 0.0
26/09:30pm 23.6 25.8 19.7 79 2.5 ENE 7 9 4 5 1017.7 - 0.0
26/09:00pm 24.0 25.3 19.3 75 3.0 NNE 11 15 6 8 1017.9 1017.9 0.0
26/08:30pm 24.0 25.7 19.3 75 3.0 NE 9 13 5 7 1018.0 - 0.0
26/08:00pm 24.1 23.8 19.2 74 3.1 E 19 24 10 13 1017.6 - 0.0
26/07:30pm 24.1 23.4 20.2 79 2.5 ENE 24 30 13 16 1016.9 - 0.0
26/07:00pm 24.6 24.3 20.3 77 2.8 ENE 22 30 12 16 1016.6 - 0.0
26/06:30pm 24.6 25.3 20.5 78 2.7 E 17 22 9 12 1016.9 - 0.0
26/06:00pm 24.6 24.4 19.8 74 3.1 E 20 26 11 14 1016.6 1016.6 0.0
26/05:30pm 25.0 24.5 19.9 73 3.3 E 22 32 12 17 1016.2 - 0.0
26/05:00pm 25.5 26.0 21.1 76 2.9 E 20 26 11 14 1016.3 - 0.0
26/04:30pm 27.3 28.0 19.6 62 5.0 ENE 15 20 8 11 1015.9 - 0.0
26/04:00pm 27.8 26.6 17.5 53 6.5 ESE 20 24 11 13 1015.1 - 0.0
26/03:30pm 28.1 30.5 21.5 67 4.4 WSW 11 19 6 10 1015.3 - 0.0
26/03:00pm 28.7 28.0 20.2 60 5.6 WNW 24 32 13 17 1014.9 1014.9 0.0
26/02:30pm 30.0 29.5 20.0 55 6.6 W 22 28 12 15 1014.7 - 0.0
26/02:00pm 31.2 30.2 19.6 50 7.6 W 24 32 13 17 1014.8 - 0.0
26/01:30pm 32.6 31.1 17.8 41 9.5 WNW 22 30 12 16 1015.5 - 0.0
26/01:00pm 32.8 30.4 17.3 39 9.9 NW 26 33 14 18 1015.8 - 0.0
26/12:30pm 31.4 31.0 19.3 48 7.9 NW 20 26 11 14 1016.0 - 0.0
26/12:00pm 32.5 31.7 17.1 39 9.8 N 17 24 9 13 1016.0 1016.0 0.0
26/11:30am 32.6 32.2 18.0 41 9.4 NNE 17 26 9 14 1016.3 - 0.0
26/11:00am 31.5 31.2 18.3 45 8.5 N 17 30 9 16 1016.6 - 0.0
26/10:30am 29.8 29.1 18.2 49 7.4 NE 19 30 10 16 1017.1 - 0.0
26/10:00am 29.8 29.5 18.2 49 7.4 ENE 17 26 9 14 1017.1 - 0.0
26/09:30am 29.1 28.8 18.3 52 6.9 E 17 20 9 11 1017.3 - 0.0
26/09:00am 27.2 26.7 18.6 59 5.5 NE 19 22 10 12 1017.3 1017.3 0.0
26/08:30am 26.9 25.4 18.6 60 5.3 NE 24 28 13 15 1017.2 - 0.0
26/08:00am 26.6 25.4 18.4 60 5.2 NE 22 30 12 16 1016.7 - 0.0
26/07:30am 25.8 24.8 18.0 62 4.9 ENE 20 26 11 14 1016.3 - 0.0
26/07:00am 24.6 24.2 18.1 67 4.1 ENE 17 22 9 12 1016.3 - 0.0
26/06:30am 24.3 23.5 18.4 69 3.7 E 20 26 11 14 1016.1 - 0.0
26/06:00am 24.2 23.6 18.8 72 3.4 E 20 28 11 15 1016.0 1016.0 0.0
26/05:30am 23.6 24.7 20.4 82 2.1 ESE 15 19 8 10 1015.8 - 0.0
26/05:00am 23.0 25.4 20.9 88 1.4 E 9 13 5 7 1015.1 - 0.0
26/04:30am 23.4 26.1 21.3 88 1.4 NE 9 9 5 5 1015.0 - 0.0
26/04:00am 23.9 28.4 21.6 87 1.5 CALM 0 0 0 0 1014.8 - 0.0
26/03:30am 23.9 26.9 21.9 88 1.3 NNE 9 11 5 6 1014.7 - 0.0
26/03:00am 23.3 26.4 22.2 93 0.7 NE 9 11 5 6 1014.8 1014.8 0.0
26/02:30am 23.6 27.2 22.4 93 0.8 NE 7 9 4 5 1015.0 - 0.0
26/02:00am 23.9 26.9 22.7 93 0.8 NE 11 15 6 8 1015.1 - 0.0
26/01:30am 23.8 26.9 22.1 90 1.1 NNE 9 11 5 6 1015.4 - 0.0
26/01:00am 23.8 26.8 22.0 90 1.2 N 9 11 5 6 1015.4 - 0.0
26/12:30am 22.8 25.4 20.5 87 1.5 NNE 7 11 4 6 1015.4 - 0.0
26/12:00am 22.8 26.8 20.5 87 1.5 CALM 0 0 0 0 1015.4 1015.4 0.0
 
Date/Time
WST
Temp
°C
App
Temp
°C
Dew
Point
Rel
Hum
%
Delta-T
°C
Wind Press
QNH
hPa
Press
MSL
hPa
Rain
since 9 am
mm
Dir
 
Spd
km/h
Gust
km/h
Spd
kts
Gust
kts
25/11:30pm 23.6 26.9 21.5 88 1.4 NW 6 9 3 5 1015.4 - 0.0
25/11:00pm 23.8 26.9 21.4 86 1.6 ENE 7 9 4 5 1015.6 - 0.0
25/10:30pm 24.1 27.3 21.2 84 1.9 N 6 9 3 5 1015.7 - 0.0
25/10:00pm 24.5 27.3 21.6 84 1.9 ENE 9 11 5 6 1015.6 - 0.0
25/09:30pm 25.3 29.5 21.8 81 2.3 ENE 2 9 1 5 1015.4 - 0.0
25/09:00pm 25.6 29.2 22.0 80 2.4 WSW 6 9 3 5 1015.5 1015.5 0.0
25/08:30pm 25.7 28.0 22.0 80 2.5 SW 13 17 7 9 1014.5 - 0.0
25/08:00pm 25.9 28.0 22.5 81 2.3 WSW 15 20 8 11 1014.2 - 0.0
25/07:30pm 25.9 27.4 22.0 79 2.6 WSW 17 22 9 12 1014.1 - 0.0
25/07:00pm 25.9 27.6 22.3 80 2.4 WSW 17 24 9 13 1013.8 - 0.0

Other Formats:

Comma delimited format used in spreadsheet applications
http://www.bom.gov.au/fwo/IDW60801/IDW60801.94300.axf

JavaScript Object Notation format (JSON) in row-major order
http://www.bom.gov.au/fwo/IDW60801/IDW60801.94300.json